Time;durP1;ratioP1;P1;durP2;ratioP2;P2;SDS_P1;SDS_P2;PMS_P1;PMS_P2;Temp;Humidity;BMP_temperature;BMP_pressure;BME280_temperature;BME280_humidity;BME280_pressure;Samples;Min_cycle;Max_cycle;Signal;HPM_P1;HPM_P2
2021/08/10 00:00:49;;;;;;;11.00;3.67;;;;;;;15.32;85.36;101656.88;4980323;28;20067;-76
2021/08/10 00:03:17;;;;;;;11.13;4.63;;;;;;;15.34;85.87;101648.78;4977796;28;20070;-71
2021/08/10 00:05:48;;;;;;;10.73;4.18;;;;;;;15.34;86.01;101653.25;4979220;28;20312;-71
2021/08/10 00:08:16;;;;;;;10.15;3.83;;;;;;;15.35;85.87;101646.94;4977093;28;20157;-71
2021/08/10 00:10:45;;;;;;;15.02;3.60;;;;;;;15.36;85.56;101641.50;4978609;28;20610;-71
2021/08/10 00:13:15;;;;;;;12.00;4.38;;;;;;;15.36;86.07;101646.00;4979899;28;20062;-70
2021/08/10 00:15:43;;;;;;;12.85;4.00;;;;;;;15.39;85.90;101648.56;4979497;28;20066;-70
2021/08/10 00:18:11;;;;;;;8.88;3.42;;;;;;;15.42;85.89;101651.13;4979706;28;20141;-70
2021/08/10 00:20:39;;;;;;;8.00;3.60;;;;;;;15.38;85.58;101649.53;4978410;28;20086;-70
2021/08/10 00:23:07;;;;;;;13.30;3.67;;;;;;;15.34;86.12;101648.78;4979856;28;20346;-70
2021/08/10 00:25:35;;;;;;;8.77;3.72;;;;;;;15.31;86.41;101649.75;4978689;28;21664;-71
2021/08/10 00:28:04;;;;;;;11.07;3.40;;;;;;;15.31;86.29;101649.75;4980046;28;20095;-70
2021/08/10 00:30:33;;;;;;;14.20;4.15;;;;;;;15.35;86.59;101647.81;4978036;28;20629;-70
2021/08/10 00:33:01;;;;;;;16.92;3.45;;;;;;;15.34;86.27;101648.78;4976192;28;20083;-70
2021/08/10 00:35:29;;;;;;;10.90;3.65;;;;;;;15.36;86.17;101643.31;4980493;28;20357;-70
2021/08/10 00:37:56;;;;;;;10.55;3.55;;;;;;;15.34;86.42;101642.50;4980503;28;20498;-70
2021/08/10 00:40:24;;;;;;;13.38;4.07;;;;;;;15.35;86.25;101642.44;4980867;28;20069;-70
2021/08/10 00:42:52;;;;;;;10.30;4.18;;;;;;;15.37;86.62;101647.75;4978844;28;20379;-70
2021/08/10 00:45:20;;;;;;;9.70;4.10;;;;;;;15.35;86.73;101644.25;4979765;28;20387;-70
2021/08/10 00:47:49;;;;;;;10.68;3.78;;;;;;;15.30;86.96;101637.22;4978488;28;20065;-75
2021/08/10 00:50:17;;;;;;;14.68;4.65;;;;;;;15.31;86.80;101638.13;4979390;28;20062;-75
2021/08/10 00:52:45;;;;;;;12.90;4.15;;;;;;;15.33;86.89;101644.31;4980379;28;20430;-75
2021/08/10 00:55:13;;;;;;;10.52;4.20;;;;;;;15.37;86.78;101639.69;4977270;28;20077;-76
2021/08/10 00:57:41;;;;;;;14.27;4.93;;;;;;;15.35;86.54;101642.44;4980294;28;20059;-76
2021/08/10 01:00:10;;;;;;;11.35;4.78;;;;;;;15.35;86.84;101641.56;4977100;28;20466;-76
2021/08/10 01:02:38;;;;;;;11.32;3.97;;;;;;;15.30;86.96;101630.97;4979708;28;20383;-76
2021/08/10 01:05:08;;;;;;;10.32;4.57;;;;;;;15.28;87.00;101631.03;4981972;28;20100;-77
2021/08/10 01:07:42;;;;;;;11.95;4.43;;;;;;;15.30;86.96;101636.38;4976444;28;20100;-76
2021/08/10 01:10:15;;;;;;;10.43;4.60;;;;;;;15.30;87.34;101634.53;4978732;28;20132;-76
2021/08/10 01:12:50;;;;;;;12.05;4.35;;;;;;;15.24;87.73;101637.50;4977871;28;20136;-76
2021/08/10 01:15:21;;;;;;;11.00;4.40;;;;;;;15.25;87.31;101639.22;4979612;28;20148;-76
2021/08/10 01:17:57;;;;;;;9.30;4.28;;;;;;;15.25;87.46;101636.53;4978159;28;20090;-71
2021/08/10 01:20:35;;;;;;;15.82;4.47;;;;;;;15.29;87.27;101638.19;4979902;28;20050;-71
2021/08/10 01:23:07;;;;;;;12.82;4.20;;;;;;;15.25;87.60;101639.22;4979356;28;20175;-71
2021/08/10 01:25:50;;;;;;;12.88;4.50;;;;;;;15.24;87.73;101639.31;4977398;28;20319;-71
2021/08/10 01:28:37;;;;;;;10.80;4.20;;;;;;;15.18;88.07;101635.03;4979070;28;20373;-71
2021/08/10 01:31:33;;;;;;;12.50;4.32;;;;;;;15.16;88.17;101628.84;4978383;28;20050;-71
2021/08/10 01:34:10;;;;;;;8.80;4.50;;;;;;;15.18;88.50;101631.47;4965314;28;20066;-71
2021/08/10 01:36:41;;;;;;;10.40;4.38;;;;;;;15.16;88.70;101633.34;4978628;28;20109;-71
2021/08/10 01:39:09;;;;;;;10.65;5.05;;;;;;;15.14;88.63;101633.41;4979050;28;20090;-71
2021/08/10 01:41:39;;;;;;;10.60;4.55;;;;;;;15.20;88.44;101634.97;4978364;28;20071;-71
2021/08/10 01:44:07;;;;;;;15.27;5.53;;;;;;;15.19;88.58;101633.19;4980789;28;20058;-71
2021/08/10 01:46:37;;;;;;;12.15;5.15;;;;;;;15.18;88.81;101632.34;4978675;28;20188;-71
2021/08/10 01:49:05;;;;;;;11.80;4.90;;;;;;;15.17;88.83;101627.91;4978342;28;20069;-71
2021/08/10 01:51:35;;;;;;;12.75;5.00;;;;;;;15.13;89.12;101628.94;4978427;28;20073;-71
2021/08/10 01:54:04;;;;;;;13.07;4.50;;;;;;;15.11;89.24;101625.44;4979134;28;20237;-71
2021/08/10 01:56:33;;;;;;;15.85;4.93;;;;;;;15.08;89.46;101618.38;4978201;28;20400;-71
2021/08/10 01:59:03;;;;;;;10.65;4.60;;;;;;;15.11;89.59;101629.00;4978868;28;20101;-71
2021/08/10 02:01:33;;;;;;;11.45;4.50;;;;;;;15.09;89.65;101635.41;4975748;28;20090;-76
2021/08/10 02:04:04;;;;;;;10.13;4.10;;;;;;;15.08;89.84;101634.50;4978878;28;20223;-76
2021/08/10 02:06:32;;;;;;;10.77;4.97;;;;;;;15.03;89.63;101633.78;4978777;28;20342;-76
2021/08/10 02:09:01;;;;;;;10.85;4.85;;;;;;;15.00;89.92;101628.56;4976222;28;20169;-75
2021/08/10 02:11:30;;;;;;;11.00;4.97;;;;;;;14.94;90.45;101639.53;4978588;28;20145;-72
2021/08/10 02:13:59;;;;;;;16.88;4.93;;;;;;;14.99;90.24;101639.38;4978477;28;20355;-71
2021/08/10 02:16:29;;;;;;;14.73;4.57;;;;;;;14.97;90.36;101644.78;4978976;28;20539;-71
2021/08/10 02:18:58;;;;;;;13.68;4.55;;;;;;;14.94;90.77;101645.78;4977885;28;20054;-71
2021/08/10 02:21:33;;;;;;;14.25;4.80;;;;;;;15.05;90.31;101650.75;4978404;28;20062;-71
2021/08/10 02:24:07;;;;;;;15.13;5.60;;;;;;;15.07;90.18;101646.19;4978864;28;20066;-71
2021/08/10 02:26:41;;;;;;;16.48;5.68;;;;;;;15.02;90.76;101640.13;4977528;28;20109;-71
2021/08/10 02:29:12;;;;;;;18.13;4.90;;;;;;;15.03;90.88;101652.59;4979803;28;20094;-71
2021/08/10 02:31:41;;;;;;;16.08;5.75;;;;;;;15.03;91.01;101643.69;4977672;28;20077;-71
2021/08/10 02:34:09;;;;;;;14.18;5.10;;;;;;;15.01;91.29;101643.72;4976738;28;20423;-71
2021/08/10 02:36:39;;;;;;;13.98;5.35;;;;;;;15.00;91.96;101651.84;4975623;28;20050;-71
2021/08/10 02:39:09;;;;;;;12.77;5.55;;;;;;;15.02;91.57;101650.88;4977717;28;20062;-71
2021/08/10 02:41:38;;;;;;;11.35;4.53;;;;;;;15.01;91.86;101646.41;4980042;28;20330;-72
2021/08/10 02:44:07;;;;;;;15.13;4.95;;;;;;;15.03;91.37;101651.75;4976820;28;20109;-71
2021/08/10 02:46:35;;;;;;;15.75;5.88;;;;;;;15.07;91.22;101650.72;4977236;28;20463;-71
2021/08/10 02:49:04;;;;;;;14.63;6.07;;;;;;;15.08;91.07;101653.31;4979303;28;20445;-71
2021/08/10 02:51:32;;;;;;;10.57;4.60;;;;;;;15.06;91.08;101655.19;4977289;28;20047;-71
2021/08/10 02:54:01;;;;;;;11.20;4.75;;;;;;;15.00;91.41;101657.22;4975436;28;20091;-71
2021/08/10 02:56:34;;;;;;;11.55;5.43;;;;;;;14.98;91.71;101659.09;4978511;28;20054;-71
2021/08/10 02:59:07;;;;;;;16.50;6.65;;;;;;;14.96;92.02;101658.28;4977376;28;20070;-69
2021/08/10 03:01:40;;;;;;;13.32;5.72;;;;;;;14.96;91.85;101655.59;4976185;28;20050;-69
2021/08/10 03:04:09;;;;;;;16.35;5.72;;;;;;;14.94;91.96;101661.91;4978643;28;20093;-69
2021/08/10 03:06:38;;;;;;;23.23;7.43;;;;;;;14.94;92.00;101656.53;4977818;28;20098;-70
2021/08/10 03:09:09;;;;;;;14.52;6.00;;;;;;;14.89;92.06;101647.75;4977906;28;20053;-70
2021/08/10 03:11:41;;;;;;;12.63;5.47;;;;;;;14.80;92.84;101652.63;4977975;28;20071;-69
2021/08/10 03:14:12;;;;;;;16.60;6.32;;;;;;;14.80;92.57;101647.25;4976594;28;20397;-69
2021/08/10 03:16:41;;;;;;;12.32;6.38;;;;;;;14.74;93.03;101659.06;4975424;28;20088;-72
2021/08/10 03:19:11;;;;;;;16.70;7.50;;;;;;;14.70;93.33;101654.75;4977918;28;20132;-70
2021/08/10 03:21:43;;;;;;;15.85;6.15;;;;;;;14.70;93.32;101658.31;4981081;28;20101;-70
2021/08/10 03:24:13;;;;;;;16.33;6.40;;;;;;;14.71;93.64;101659.19;4980484;28;20066;-70
2021/08/10 03:26:42;;;;;;;13.43;6.30;;;;;;;14.73;93.32;101655.53;4980609;28;20066;-70
2021/08/10 03:29:11;;;;;;;17.67;6.88;;;;;;;14.73;93.62;101660.03;4979572;28;20156;-70
2021/08/10 03:31:40;;;;;;;15.82;8.25;;;;;;;14.66;93.83;101655.78;4981120;28;20065;-70
2021/08/10 03:34:08;;;;;;;13.70;6.75;;;;;;;14.62;94.40;101667.56;4980651;28;20390;-70
2021/08/10 03:36:36;;;;;;;16.33;6.60;;;;;;;14.56;94.38;101657.91;4980024;28;20400;-70
2021/08/10 03:39:03;;;;;;;16.20;6.50;;;;;;;14.53;95.07;101666.06;4979048;28;20466;-70
2021/08/10 03:41:33;;;;;;;15.48;6.78;;;;;;;14.55;95.40;101667.75;4980344;28;20137;-70
2021/08/10 03:44:00;;;;;;;13.80;7.30;;;;;;;14.55;95.48;101664.19;4979677;28;20057;-70
2021/08/10 03:46:30;;;;;;;13.98;6.70;;;;;;;14.57;94.98;101657.84;4978934;28;20339;-71
2021/08/10 03:48:59;;;;;;;20.98;7.15;;;;;;;14.60;94.94;101661.41;4980646;28;20141;-70
2021/08/10 03:51:27;;;;;;;16.15;6.88;;;;;;;14.54;95.09;101663.34;4981841;28;20062;-70
2021/08/10 03:53:55;;;;;;;19.02;7.05;;;;;;;14.51;95.41;101665.25;4978365;28;20055;-70
2021/08/10 03:56:25;;;;;;;14.95;6.78;;;;;;;14.53;95.41;101656.19;4982758;28;20070;-70
2021/08/10 03:58:55;;;;;;;13.27;7.68;;;;;;;14.48;95.70;101663.53;4977537;28;20129;-70
2021/08/10 04:01:25;;;;;;;17.15;6.93;;;;;;;14.48;95.66;101668.91;4980339;28;20503;-70
2021/08/10 04:03:56;;;;;;;17.83;6.57;;;;;;;14.45;95.81;101674.38;4980659;28;20373;-70
2021/08/10 04:06:25;;;;;;;19.88;7.03;;;;;;;14.39;96.38;101667.44;4980554;28;20072;-70
2021/08/10 04:08:53;;;;;;;13.63;6.90;;;;;;;14.38;96.34;101659.44;4980443;28;20093;-70
2021/08/10 04:11:22;;;;;;;20.83;7.00;;;;;;;14.37;96.25;101671.13;4978555;28;21736;-70
2021/08/10 04:13:50;;;;;;;13.52;6.75;;;;;;;14.36;96.42;101672.03;4981681;28;20153;-70
2021/08/10 04:16:22;;;;;;;16.70;7.55;;;;;;;14.35;96.31;101667.56;4978811;28;20412;-71
2021/08/10 04:18:51;;;;;;;14.20;6.43;;;;;;;14.26;96.41;101671.47;4980928;28;20068;-70
2021/08/10 04:21:20;;;;;;;14.85;6.65;;;;;;;14.25;96.66;101661.69;4977436;28;20401;-71
2021/08/10 04:23:48;;;;;;;20.17;8.23;;;;;;;14.22;96.98;101660.88;4979464;28;20387;-75
2021/08/10 04:26:16;;;;;;;16.10;7.35;;;;;;;14.18;97.54;101658.31;4978155;28;20124;-76
2021/08/10 04:28:44;;;;;;;15.77;6.72;;;;;;;14.22;97.37;101660.88;4978448;28;20058;-75
2021/08/10 04:31:15;;;;;;;18.33;8.00;;;;;;;14.18;97.59;101676.22;4979214;28;20045;-76
2021/08/10 04:33:45;;;;;;;13.43;7.00;;;;;;;14.17;97.91;101680.72;4977556;28;20105;-75
2021/08/10 04:36:13;;;;;;;17.90;8.07;;;;;;;14.17;97.32;101683.41;4981435;28;20308;-76
2021/08/10 04:38:45;;;;;;;17.83;7.22;;;;;;;14.13;97.65;101681.75;4981594;28;20480;-76
2021/08/10 04:41:13;;;;;;;17.02;6.78;;;;;;;14.13;97.49;101676.38;4980786;28;20257;-76
2021/08/10 04:43:41;;;;;;;14.85;7.05;;;;;;;14.14;98.07;101682.63;4980242;28;20054;-76
2021/08/10 04:46:08;;;;;;;17.65;7.90;;;;;;;14.14;98.00;101675.44;4978425;28;20070;-75
2021/08/10 04:48:36;;;;;;;14.15;7.25;;;;;;;14.15;98.04;101687.06;4980328;28;20070;-76
2021/08/10 04:51:05;;;;;;;19.55;8.23;;;;;;;14.13;98.14;101679.06;4978101;28;20062;-76
2021/08/10 04:53:33;;;;;;;18.90;8.65;;;;;;;14.18;98.03;101681.56;4979526;28;20317;-76
2021/08/10 04:56:01;;;;;;;16.85;7.43;;;;;;;14.13;97.96;101672.81;4979305;28;20070;-76
2021/08/10 04:58:28;;;;;;;17.08;7.78;;;;;;;14.16;98.34;101678.94;4977333;28;20449;-76
2021/08/10 05:01:00;;;;;;;19.10;8.25;;;;;;;14.26;98.21;101684.88;4980152;28;20141;-75
2021/08/10 05:03:28;;;;;;;20.30;8.05;;;;;;;14.35;97.86;101689.06;4978470;28;20770;-76
2021/08/10 05:05:57;;;;;;;18.60;8.20;;;;;;;14.43;97.71;101689.69;4980954;28;20077;-76
2021/08/10 05:08:26;;;;;;;14.80;8.30;;;;;;;14.54;97.42;101697.34;4975272;28;20496;-75
2021/08/10 05:10:54;;;;;;;21.92;9.30;;;;;;;14.61;97.09;101688.19;4978408;28;20476;-75
2021/08/10 05:13:22;;;;;;;16.17;7.63;;;;;;;14.68;96.68;101696.91;4979624;28;20368;-75
2021/08/10 05:15:49;;;;;;;18.90;8.07;;;;;;;14.77;96.67;101690.34;4976982;28;20126;-75
2021/08/10 05:18:17;;;;;;;17.40;8.07;;;;;;;14.84;96.19;101684.66;4977026;28;20047;-76
2021/08/10 05:20:45;;;;;;;17.75;7.82;;;;;;;14.94;95.67;101682.53;4977782;28;20330;-77
2021/08/10 05:23:13;;;;;;;21.52;8.02;;;;;;;14.93;95.19;101681.66;4979198;28;20089;-76
2021/08/10 05:25:42;;;;;;;15.68;7.25;;;;;;;14.88;95.13;101672.00;4978070;28;20066;-72
2021/08/10 05:28:09;;;;;;;18.92;7.72;;;;;;;14.84;96.08;101681.13;4978540;28;20408;-71
2021/08/10 05:30:37;;;;;;;16.90;6.75;;;;;;;14.78;96.00;101670.56;4977390;28;20062;-71
2021/08/10 05:33:05;;;;;;;14.52;7.30;;;;;;;14.79;95.84;101678.59;4976709;28;20066;-71
2021/08/10 05:35:33;;;;;;;16.52;7.50;;;;;;;15.00;95.96;101684.09;4978079;28;20065;-70
2021/08/10 05:38:01;;;;;;;17.70;7.78;;;;;;;15.26;94.83;101684.00;4975184;28;20129;-71
2021/08/10 05:40:29;;;;;;;19.42;7.68;;;;;;;15.32;94.25;101678.41;4979596;28;20152;-71
2021/08/10 05:42:58;;;;;;;18.45;8.65;;;;;;;15.48;92.96;101688.56;4976470;28;20094;-71
2021/08/10 05:45:26;;;;;;;19.33;7.05;;;;;;;15.78;92.54;101691.00;4978300;28;20050;-71
2021/08/10 05:47:54;;;;;;;16.60;7.60;;;;;;;15.78;92.53;101691.00;4979093;28;20062;-71
2021/08/10 05:50:22;;;;;;;14.10;6.57;;;;;;;15.97;91.47;101694.69;4976839;28;20071;-71
2021/08/10 05:52:51;;;;;;;15.30;7.03;;;;;;;15.87;91.75;101701.41;4978184;28;20567;-71
2021/08/10 05:55:20;;;;;;;22.00;7.80;;;;;;;15.84;92.05;101698.81;4978692;28;20061;-71
2021/08/10 05:57:48;;;;;;;15.65;6.68;;;;;;;15.84;92.16;101694.31;4980641;28;20092;-71
2021/08/10 06:00:17;;;;;;;14.70;7.13;;;;;;;15.93;92.29;101686.81;4980932;28;20132;-71
2021/08/10 06:02:45;;;;;;;17.42;7.43;;;;;;;16.25;91.59;101688.16;4980381;28;20051;-71
2021/08/10 06:05:13;;;;;;;19.42;8.40;;;;;;;16.58;90.54;101676.84;4979688;28;20081;-71
2021/08/10 06:07:41;;;;;;;22.25;8.63;;;;;;;16.67;90.46;101691.72;4979750;28;20058;-71
2021/08/10 06:10:09;;;;;;;20.60;9.70;;;;;;;16.72;91.37;101695.09;4978393;28;20128;-71
2021/08/10 06:12:37;;;;;;;19.40;10.13;;;;;;;16.68;90.57;101680.88;4980512;28;20153;-71
2021/08/10 06:15:06;;;;;;;23.38;10.48;;;;;;;16.56;91.30;101694.91;4978987;28;20066;-71
2021/08/10 06:17:35;;;;;;;20.25;11.48;;;;;;;16.37;92.67;101692.13;4980231;28;20054;-71
2021/08/10 06:20:04;;;;;;;19.60;10.55;;;;;;;16.23;92.59;101685.53;4981701;28;20094;-77
2021/08/10 06:22:32;;;;;;;18.05;11.15;;;;;;;16.15;93.07;101694.88;4981311;28;20110;-78
2021/08/10 06:25:00;;;;;;;22.25;10.00;;;;;;;16.21;92.61;101694.63;4979092;28;20109;-77
2021/08/10 06:27:28;;;;;;;18.17;9.68;;;;;;;16.25;94.05;101698.91;4977974;28;20062;-78
2021/08/10 06:29:55;;;;;;;16.17;9.90;;;;;;;16.04;94.99;101701.56;4980568;28;20109;-79
2021/08/10 06:32:23;;;;;;;19.58;10.02;;;;;;;15.88;95.69;101695.06;4979759;28;20070;-80
2021/08/10 06:34:52;;;;;;;20.60;9.38;;;;;;;15.73;96.20;101701.03;4978613;28;20062;-77
2021/08/10 06:37:20;;;;;;;20.70;10.40;;;;;;;15.71;97.57;101698.41;4981214;28;20086;-77
2021/08/10 06:39:48;;;;;;;21.58;10.18;;;;;;;15.54;97.21;101690.13;4979808;28;20073;-76
2021/08/10 06:42:18;;;;;;;17.67;9.77;;;;;;;15.56;97.73;101685.56;4980424;28;20476;-74
2021/08/10 06:44:46;;;;;;;16.60;10.02;;;;;;;15.58;98.28;101694.44;4980249;28;20062;-73
2021/08/10 06:47:14;;;;;;;21.58;10.20;;;;;;;15.46;98.17;101690.41;4979553;28;20069;-72
2021/08/10 06:49:42;;;;;;;21.80;10.82;;;;;;;15.48;99.32;101688.56;4981137;28;20141;-70
2021/08/10 06:52:11;;;;;;;19.33;10.02;;;;;;;15.56;98.49;101689.13;4978970;28;20392;-72
2021/08/10 06:54:39;;;;;;;20.02;10.10;;;;;;;15.67;98.14;101691.41;4980377;28;20098;-70
2021/08/10 06:57:07;;;;;;;20.08;10.23;;;;;;;15.64;97.88;101689.69;4983872;28;20150;-72
2021/08/10 06:59:36;;;;;;;21.77;9.80;;;;;;;15.70;97.48;101696.66;4983621;28;20066;-71
2021/08/10 07:02:04;;;;;;;19.70;10.40;;;;;;;15.66;95.92;101690.53;4983544;28;20082;-70
2021/08/10 07:04:32;;;;;;;16.33;9.10;;;;;;;15.67;96.33;101692.25;4982873;28;20117;-70
2021/08/10 07:07:01;;;;;;;15.48;8.70;;;;;;;15.80;96.63;101690.00;4982401;28;20071;-71
2021/08/10 07:09:30;;;;;;;17.55;9.18;;;;;;;16.02;97.64;101705.25;4982238;28;20089;-70
2021/08/10 07:11:58;;;;;;;20.95;9.32;;;;;;;16.16;97.59;101705.56;4980641;28;20148;-72
2021/08/10 07:14:26;;;;;;;16.65;8.68;;;;;;;16.13;95.08;101697.63;4983333;28;20066;-70
2021/08/10 07:16:54;;;;;;;16.35;8.40;;;;;;;16.15;95.26;101701.13;4984114;28;20377;-71
2021/08/10 07:19:22;;;;;;;17.48;7.72;;;;;;;16.12;94.86;101703.06;4980365;28;20058;-71
2021/08/10 07:21:49;;;;;;;15.00;7.60;;;;;;;16.17;94.46;101704.63;4982157;28;20113;-71
2021/08/10 07:24:19;;;;;;;15.55;7.03;;;;;;;16.24;94.08;101699.84;4979498;28;20086;-71
2021/08/10 07:26:48;;;;;;;15.38;7.70;;;;;;;16.29;93.70;101700.53;4982249;28;20058;-73
2021/08/10 07:29:20;;;;;;;16.88;7.45;;;;;;;16.68;93.39;101702.44;4980837;28;20423;-73
2021/08/10 07:31:48;;;;;;;14.52;6.60;;;;;;;17.38;90.42;101702.91;4982399;28;20516;-73
2021/08/10 07:34:16;;;;;;;20.08;7.20;;;;;;;17.38;89.24;101705.59;4984274;28;20070;-72
2021/08/10 07:36:43;;;;;;;13.50;6.30;;;;;;;17.49;89.44;101702.44;4980504;28;20066;-72
2021/08/10 07:39:11;;;;;;;15.48;6.07;;;;;;;17.32;88.56;101703.22;4981179;28;20105;-73
2021/08/10 07:41:39;;;;;;;15.07;5.78;;;;;;;16.96;88.99;101704.84;4980572;28;20080;-75
2021/08/10 07:44:08;;;;;;;13.32;6.53;;;;;;;17.10;87.75;101697.94;4981553;28;20186;-74
2021/08/10 07:46:36;;;;;;;14.25;5.88;;;;;;;17.29;89.05;101706.91;4979865;28;20411;-74
2021/08/10 07:49:04;;;;;;;16.85;6.75;;;;;;;17.51;87.93;101703.22;4979924;28;20063;-73
2021/08/10 07:51:31;;;;;;;14.43;6.57;;;;;;;17.53;87.97;101702.19;4985301;28;20062;-74
2021/08/10 07:53:59;;;;;;;17.90;6.78;;;;;;;17.57;88.41;101710.13;4981925;28;20066;-74
2021/08/10 07:56:27;;;;;;;10.40;6.60;;;;;;;17.37;87.91;101714.66;4981518;28;20057;-73
2021/08/10 07:58:55;;;;;;;14.52;7.43;;;;;;;17.29;88.25;101714.13;4979405;28;20058;-73
2021/08/10 08:01:24;;;;;;;16.15;7.43;;;;;;;17.17;89.40;101711.06;4981628;28;20070;-73
2021/08/10 08:03:52;;;;;;;15.45;7.07;;;;;;;17.00;88.52;101716.34;4978723;28;20150;-72
2021/08/10 08:06:19;;;;;;;15.77;8.07;;;;;;;16.88;89.11;101711.50;4981421;28;20149;-72
2021/08/10 08:08:47;;;;;;;13.23;7.80;;;;;;;16.91;89.94;101709.56;4982412;28;20066;-73
2021/08/10 08:11:15;;;;;;;14.45;7.88;;;;;;;17.13;89.52;101711.28;4981577;28;20077;-74
2021/08/10 08:13:43;;;;;;;14.68;8.80;;;;;;;17.22;90.08;101709.97;4979756;28;20093;-73
2021/08/10 08:16:11;;;;;;;15.27;8.13;;;;;;;17.38;88.43;101713.69;4981699;28;20135;-73
2021/08/10 08:18:41;;;;;;;17.15;9.40;;;;;;;17.52;87.81;101705.84;4979908;28;20527;-73
2021/08/10 08:21:08;;;;;;;14.85;7.68;;;;;;;17.33;86.44;101715.72;4982298;28;20368;-72
2021/08/10 08:23:37;;;;;;;13.32;8.05;;;;;;;17.11;87.48;101715.84;4979271;28;20526;-73
2021/08/10 08:26:06;;;;;;;13.63;7.40;;;;;;;17.18;87.73;101707.41;4983370;28;20070;-72
2021/08/10 08:28:35;;;;;;;16.60;8.48;;;;;;;17.28;88.42;101712.38;4983314;28;20066;-73
2021/08/10 08:31:03;;;;;;;17.10;7.68;;;;;;;17.24;87.82;101713.47;4982289;28;20066;-73
2021/08/10 08:33:31;;;;;;;16.67;6.75;;;;;;;17.27;87.58;101716.03;4980710;28;20066;-73
2021/08/10 08:36:00;;;;;;;12.50;6.60;;;;;;;17.46;86.63;101721.44;4979116;28;20163;-73
2021/08/10 08:38:28;;;;;;;11.60;6.30;;;;;;;18.21;85.00;101716.94;4981027;28;20193;-73
2021/08/10 08:40:56;;;;;;;13.60;6.75;;;;;;;18.22;83.97;101727.69;4979818;28;20120;-75
2021/08/10 08:43:24;;;;;;;12.20;5.15;;;;;;;18.06;83.73;101721.28;4979420;28;20067;-72
2021/08/10 08:45:52;;;;;;;9.93;5.13;;;;;;;17.84;83.93;101714.22;4977004;28;20153;-72
2021/08/10 08:48:22;;;;;;;14.60;5.00;;;;;;;17.85;84.33;101718.66;4980127;28;20145;-72
2021/08/10 08:50:50;;;;;;;10.82;5.43;;;;;;;17.78;85.72;101721.75;4979327;28;20365;-74
2021/08/10 08:53:20;;;;;;;12.82;5.45;;;;;;;17.94;85.53;101721.88;4976565;28;20073;-72
2021/08/10 08:55:48;;;;;;;10.95;5.65;;;;;;;18.26;84.59;101731.09;4982242;28;20042;-73
2021/08/10 08:58:16;;;;;;;11.70;5.00;;;;;;;19.14;80.42;101723.88;4980981;28;20065;-73
2021/08/10 09:00:44;;;;;;;11.43;5.05;;;;;;;19.27;79.64;101730.34;4980415;28;20065;-73
2021/08/10 09:03:12;;;;;;;12.20;5.15;;;;;;;19.29;80.26;101732.97;4982957;28;20069;-73
2021/08/10 09:05:45;;;;;;;10.90;5.50;;;;;;;18.66;81.19;101734.44;4976856;28;20112;-74
2021/08/10 09:08:28;;;;;;;12.73;6.05;;;;;;;18.40;80.44;101733.97;4981437;28;20514;-74
2021/08/10 09:10:56;;;;;;;14.38;5.10;;;;;;;18.29;81.87;101734.50;4981427;28;20117;-74
2021/08/10 09:13:25;;;;;;;10.77;5.10;;;;;;;18.51;82.02;101736.13;4982784;28;20497;-74
2021/08/10 09:15:53;;;;;;;14.60;6.25;;;;;;;18.73;82.11;101730.50;4979789;28;20085;-74
2021/08/10 09:18:22;;;;;;;12.57;5.10;;;;;;;19.06;81.77;101745.03;4976340;28;20069;-74
2021/08/10 09:21:02;;;;;;;14.63;5.75;;;;;;;19.98;78.61;101730.97;4979773;28;20544;-74
2021/08/10 09:23:39;;;;;;;14.77;5.10;;;;;;;19.59;76.38;101742.09;4974010;28;20054;-74
2021/08/10 09:26:08;;;;;;;12.63;5.18;;;;;;;19.97;78.02;101743.63;4979957;28;20050;-74
2021/08/10 09:28:37;;;;;;;12.25;5.45;;;;;;;19.63;78.62;101739.22;4979242;28;20361;-74
2021/08/10 09:31:37;;;;;;;13.38;5.65;;;;;;;19.47;76.31;101739.22;4980210;28;20465;-74
2021/08/10 09:34:08;;;;;;;12.32;6.43;;;;;;;18.86;78.49;101746.97;4977608;28;20356;-74
2021/08/10 09:36:36;;;;;;;11.38;5.07;;;;;;;18.57;78.34;101757.41;4982812;28;20063;-73
2021/08/10 09:39:06;;;;;;;12.07;5.47;;;;;;;18.59;79.18;101757.34;4981990;28;20116;-74
2021/08/10 09:41:34;;;;;;;11.32;5.25;;;;;;;18.81;78.95;101754.41;4980427;28;20046;-74
2021/08/10 09:44:13;;;;;;;13.80;5.57;;;;;;;20.20;74.78;101745.00;4982078;28;20804;-73
2021/08/10 09:46:49;;;;;;;10.93;4.82;;;;;;;20.97;72.60;101737.72;4980245;28;20065;-73
2021/08/10 09:49:18;;;;;;;13.55;5.70;;;;;;;21.32;68.60;101739.19;4979667;28;20696;-73
2021/08/10 09:51:48;;;;;;;16.30;6.22;;;;;;;21.58;68.79;101741.16;4978216;28;20068;-73
2021/08/10 09:54:18;;;;;;;11.80;5.50;;;;;;;21.86;68.27;101742.06;4979731;28;20081;-73
2021/08/10 09:56:51;;;;;;;14.18;5.63;;;;;;;22.21;66.40;101733.44;4979282;28;20362;-73
2021/08/10 09:59:20;;;;;;;13.52;5.93;;;;;;;22.08;67.71;101737.94;4981612;28;20589;-70
2021/08/10 10:01:50;;;;;;;12.07;5.43;;;;;;;21.62;67.35;101740.00;4978106;28;20515;-70
2021/08/10 10:04:23;;;;;;;11.07;5.50;;;;;;;21.55;66.90;101746.78;4979925;28;20500;-70
2021/08/10 10:06:53;;;;;;;10.55;5.22;;;;;;;21.18;64.84;101738.25;4977841;28;20077;-70
2021/08/10 10:09:24;;;;;;;14.05;5.30;;;;;;;21.02;64.95;101745.56;4981973;28;20402;-70
2021/08/10 10:11:54;;;;;;;10.23;4.70;;;;;;;20.71;67.21;101742.03;4977629;28;20320;-71
2021/08/10 10:14:22;;;;;;;10.13;4.88;;;;;;;21.33;64.76;101744.53;4980020;28;20470;-70
2021/08/10 10:16:52;;;;;;;11.90;4.97;;;;;;;21.83;61.24;101743.16;4979308;28;20312;-70
2021/08/10 10:19:22;;;;;;;9.85;4.35;;;;;;;22.20;59.03;101735.28;4977730;28;20077;-70
2021/08/10 10:21:51;;;;;;;14.50;4.70;;;;;;;22.80;58.02;101737.63;4977333;28;20072;-70
2021/08/10 10:24:22;;;;;;;8.57;3.97;;;;;;;22.34;58.89;101738.97;4976816;28;20602;-70
2021/08/10 10:26:55;;;;;;;11.65;4.35;;;;;;;23.21;58.90;101736.59;4979126;28;20215;-70
2021/08/10 10:29:23;;;;;;;9.50;4.28;;;;;;;23.09;56.39;101738.34;4979470;28;20142;-70
2021/08/10 10:31:51;;;;;;;12.25;4.65;;;;;;;23.22;56.96;101735.59;4978198;28;20113;-70
2021/08/10 10:34:20;;;;;;;11.88;4.60;;;;;;;23.41;57.12;101743.31;4980763;28;20350;-70
2021/08/10 10:36:50;;;;;;;9.77;4.50;;;;;;;23.70;57.77;101733.03;4978169;28;20114;-70
2021/08/10 10:39:25;;;;;;;11.98;4.60;;;;;;;23.71;57.29;101723.88;4980257;28;20140;-72
2021/08/10 10:41:57;;;;;;;11.82;4.38;;;;;;;24.00;55.41;101738.06;4978430;28;20048;-71
2021/08/10 10:44:36;;;;;;;15.55;5.22;;;;;;;22.68;57.59;101748.41;4979057;28;20124;-72
2021/08/10 10:47:34;;;;;;;9.27;4.90;;;;;;;23.10;59.65;101746.41;4978513;28;20070;-71
2021/08/10 10:50:13;;;;;;;12.20;4.70;;;;;;;22.36;60.47;101751.47;4978768;28;20066;-72
2021/08/10 10:52:41;;;;;;;10.02;4.15;;;;;;;22.29;58.86;101755.56;4977507;28;20081;-73
2021/08/10 10:55:11;;;;;;;9.55;4.47;;;;;;;23.13;57.91;101753.47;4979057;28;20441;-71
2021/08/10 10:57:40;;;;;;;11.52;4.78;;;;;;;23.59;56.44;101752.88;4978185;28;20117;-70
2021/08/10 11:00:27;;;;;;;10.73;4.50;;;;;;;23.94;55.13;101737.66;4977728;28;20062;-70
2021/08/10 11:03:10;;;;;;;13.88;4.57;;;;;;;23.07;55.36;101753.88;4978974;28;20062;-70
2021/08/10 11:05:38;;;;;;;10.27;4.60;;;;;;;23.49;56.59;101744.50;4977906;28;20109;-71
2021/08/10 11:08:07;;;;;;;10.27;3.85;;;;;;;22.79;55.10;101753.06;4977261;28;20062;-71
2021/08/10 11:10:54;;;;;;;9.85;4.38;;;;;;;23.37;54.77;101750.84;4979047;28;20058;-70
2021/08/10 11:13:39;;;;;;;11.63;4.18;;;;;;;23.56;52.39;101752.25;4978395;28;20066;-74
2021/08/10 11:16:10;;;;;;;9.13;4.18;;;;;;;24.05;51.74;101741.31;4980479;28;20046;-74
2021/08/10 11:18:38;;;;;;;11.52;3.95;;;;;;;24.07;51.67;101751.25;4976809;28;20415;-75
2021/08/10 11:21:27;;;;;;;9.40;3.75;;;;;;;23.97;49.64;101742.88;4979897;28;20477;-74
2021/08/10 11:23:55;;;;;;;8.55;3.88;;;;;;;23.75;49.56;101747.19;4974907;28;20062;-74
2021/08/10 11:26:39;;;;;;;9.32;3.88;;;;;;;23.86;51.02;101735.53;4976702;28;20066;-75
2021/08/10 11:29:09;;;;;;;10.15;4.00;;;;;;;23.74;52.38;101742.72;4979112;28;20070;-74